Time;durP1;ratioP1;P1;durP2;ratioP2;P2;SDS_P1;SDS_P2;PMS_P1;PMS_P2;Temp;Humidity;BMP_temperature;BMP_pressure;BME280_temperature;BME280_humidity;BME280_pressure;Samples;Min_cycle;Max_cycle;Signal;HPM_P1;HPM_P2
2023/03/15 00:01:50;;;;;;;2.45;1.02;;;3.60;99.90;;;;;;5028016;28;20103;-74
2023/03/15 00:04:15;;;;;;;2.85;1.70;;;3.60;99.90;;;;;;5026840;28;20038;-74
2023/03/15 00:06:41;;;;;;;25.08;3.90;;;3.60;99.90;;;;;;5027339;28;20038;-74
2023/03/15 00:09:07;;;;;;;26.45;2.67;;;3.60;99.90;;;;;;5027609;28;20095;-74
2023/03/15 00:11:32;;;;;;;2.90;1.48;;;3.60;99.90;;;;;;5009892;28;20152;-74
2023/03/15 00:14:00;;;;;;;3.63;1.48;;;3.60;99.90;;;;;;5028204;28;20049;-74
2023/03/15 00:16:26;;;;;;;2.00;1.07;;;3.50;99.90;;;;;;4993906;28;20053;-74
2023/03/15 00:18:53;;;;;;;6.22;1.45;;;3.50;99.90;;;;;;5026653;28;20095;-73
2023/03/15 00:21:19;;;;;;;8.57;1.27;;;3.50;99.90;;;;;;5026722;28;20628;-73
2023/03/15 00:23:45;;;;;;;1.20;0.80;;;3.50;99.90;;;;;;5027838;28;20052;-74
2023/03/15 00:26:12;;;;;;;15.65;1.90;;;3.50;99.90;;;;;;5027048;28;20402;-74
2023/03/15 00:28:38;;;;;;;2.47;1.70;;;3.50;99.90;;;;;;5027857;28;20041;-74
2023/03/15 00:31:14;;;;;;;4.70;1.25;;;3.50;99.90;;;;;;5026978;28;20038;-74
2023/03/15 00:33:40;;;;;;;10.07;2.53;;;3.50;99.90;;;;;;5008723;28;20128;-74
2023/03/15 00:36:08;;;;;;;3.22;0.93;;;3.40;99.90;;;;;;5026926;28;20237;-73
2023/03/15 00:38:35;;;;;;;2.13;1.35;;;3.40;99.90;;;;;;5027184;28;20121;-74
2023/03/15 00:41:05;;;;;;;3.55;2.65;;;3.40;99.90;;;;;;5027018;28;20049;-74
2023/03/15 00:43:30;;;;;;;2.37;1.10;;;3.40;99.90;;;;;;5027362;28;20049;-74
2023/03/15 00:45:57;;;;;;;1.55;1.45;;;3.40;99.90;;;;;;5027096;28;20045;-74
2023/03/15 00:48:22;;;;;;;7.80;2.85;;;3.40;99.90;;;;;;5024657;28;20038;-74
2023/03/15 00:50:48;;;;;;;1.55;1.38;;;3.40;99.90;;;;;;5009152;28;20050;-74
2023/03/15 00:53:14;;;;;;;1.85;1.35;;;3.30;99.90;;;;;;5026015;28;20452;-73
2023/03/15 00:55:39;;;;;;;4.13;1.07;;;3.30;99.90;;;;;;5027138;28;20042;-74
2023/03/15 00:58:05;;;;;;;1.30;0.90;;;3.30;99.90;;;;;;5026315;28;20041;-74
2023/03/15 01:00:30;;;;;;;3.92;2.08;;;3.30;99.90;;;;;;5027067;28;20045;-74
2023/03/15 01:02:56;;;;;;;6.18;1.52;;;3.30;99.90;;;;;;5008593;28;20133;-74
2023/03/15 01:05:22;;;;;;;1.38;1.13;;;3.30;99.90;;;;;;5008922;28;20254;-73
2023/03/15 01:07:48;;;;;;;2.90;1.20;;;3.30;99.90;;;;;;5026719;28;20049;-74
2023/03/15 01:10:15;;;;;;;5.38;1.00;;;3.30;99.90;;;;;;5025871;28;20064;-74
2023/03/15 01:12:41;;;;;;;2.30;1.38;;;3.30;99.90;;;;;;5008641;28;20045;-74
2023/03/15 01:15:08;;;;;;;2.67;1.60;;;3.30;99.90;;;;;;5008957;28;20422;-74
2023/03/15 01:17:33;;;;;;;1.85;1.65;;;3.30;99.90;;;;;;5025391;28;20037;-74
2023/03/15 01:19:59;;;;;;;1.95;1.25;;;3.30;99.90;;;;;;5008924;28;20048;-74
2023/03/15 01:22:26;;;;;;;3.67;1.98;;;3.20;99.90;;;;;;5009241;28;20058;-73
2023/03/15 01:24:51;;;;;;;1.70;0.87;;;3.20;99.90;;;;;;5026390;28;20473;-74
2023/03/15 01:27:17;;;;;;;3.67;1.17;;;3.10;99.90;;;;;;5026083;28;20045;-74
2023/03/15 01:29:43;;;;;;;3.33;1.27;;;3.10;99.90;;;;;;5026064;28;20111;-74
2023/03/15 01:32:08;;;;;;;8.52;2.05;;;3.00;99.90;;;;;;5024809;28;20045;-74
2023/03/15 01:34:35;;;;;;;3.67;1.27;;;2.90;99.90;;;;;;5026156;28;20048;-74
2023/03/15 01:37:01;;;;;;;2.40;1.10;;;2.90;99.90;;;;;;5008295;28;20056;-74
2023/03/15 01:39:27;;;;;;;2.85;1.27;;;2.90;99.90;;;;;;5026304;28;20064;-74
2023/03/15 01:41:53;;;;;;;2.00;1.10;;;2.80;99.90;;;;;;5025957;28;20073;-74
2023/03/15 01:44:19;;;;;;;1.40;1.02;;;2.80;99.90;;;;;;5008083;28;20049;-74
2023/03/15 01:46:45;;;;;;;2.60;1.20;;;2.80;99.90;;;;;;5025045;28;20056;-74
2023/03/15 01:49:24;;;;;;;6.87;1.13;;;2.80;99.90;;;;;;5007761;28;20038;-74
2023/03/15 01:52:00;;;;;;;6.00;1.40;;;2.80;99.90;;;;;;5008062;28;20122;-74
2023/03/15 01:54:37;;;;;;;0.60;0.60;;;2.80;99.90;;;;;;5008700;28;20581;-74
2023/03/15 01:57:07;;;;;;;1.23;0.70;;;2.80;99.90;;;;;;5025295;28;20041;-74
2023/03/15 01:59:38;;;;;;;0.87;0.57;;;2.80;99.90;;;;;;5026068;28;20033;-74
2023/03/15 02:02:04;;;;;;;1.20;1.17;;;2.80;99.90;;;;;;5006810;28;20136;-74
2023/03/15 02:04:35;;;;;;;1.80;1.50;;;2.80;99.90;;;;;;5025752;28;20686;-74
2023/03/15 02:07:02;;;;;;;2.73;0.93;;;2.80;99.90;;;;;;5025368;28;20079;-74
2023/03/15 02:09:46;;;;;;;1.57;1.40;;;2.80;99.90;;;;;;5007859;28;20463;-74
2023/03/15 02:12:12;;;;;;;2.03;0.93;;;2.80;99.90;;;;;;5025037;28;20049;-74
2023/03/15 02:14:39;;;;;;;4.03;1.40;;;2.80;99.90;;;;;;5007468;28;20568;-74
2023/03/15 02:17:05;;;;;;;4.20;0.83;;;2.80;99.90;;;;;;5006389;28;20057;-74
2023/03/15 02:19:36;;;;;;;0.75;0.47;;;2.70;99.90;;;;;;5025330;28;20123;-74
2023/03/15 02:22:40;;;;;;;3.27;0.80;;;2.70;99.90;;;;;;5022671;28;20068;-74
2023/03/15 02:25:29;;;;;;;4.53;0.73;;;2.70;99.90;;;;;;5007272;28;20050;-74
2023/03/15 02:27:56;;;;;;;2.03;1.10;;;2.70;99.90;;;;;;5007694;28;20048;-74
2023/03/15 02:30:22;;;;;;;0.90;0.60;;;2.70;99.90;;;;;;5024648;28;20052;-74
2023/03/15 02:32:48;;;;;;;3.77;1.87;;;2.70;99.90;;;;;;5006617;28;20041;-74
2023/03/15 02:35:28;;;;;;;2.93;2.50;;;2.70;99.90;;;;;;5007293;28;20486;-74
2023/03/15 02:37:54;;;;;;;2.72;1.45;;;2.70;99.90;;;;;;5007381;28;20111;-74
2023/03/15 02:40:23;;;;;;;6.87;0.93;;;2.70;99.90;;;;;;5024803;28;20049;-73
2023/03/15 02:42:53;;;;;;;2.27;1.47;;;2.70;99.90;;;;;;5007068;28;20049;-73
2023/03/15 02:45:19;;;;;;;1.30;1.20;;;2.70;99.90;;;;;;5006924;28;20132;-74
2023/03/15 02:47:47;;;;;;;1.88;1.35;;;2.70;99.90;;;;;;5023794;28;20130;-74
2023/03/15 02:50:13;;;;;;;2.30;1.07;;;2.70;99.90;;;;;;5024511;28;20506;-74
2023/03/15 02:52:38;;;;;;;1.00;0.90;;;2.70;99.90;;;;;;5025092;28;20127;-74
2023/03/15 02:55:04;;;;;;;9.73;2.40;;;2.70;99.90;;;;;;5006796;28;20068;-74
2023/03/15 02:57:30;;;;;;;1.45;1.20;;;2.70;99.90;;;;;;5007050;28;20050;-74
2023/03/15 02:59:56;;;;;;;10.10;1.77;;;2.70;99.90;;;;;;5007448;28;20050;-74
2023/03/15 03:02:22;;;;;;;7.57;1.97;;;2.70;99.90;;;;;;5006203;28;20496;-74
2023/03/15 03:04:48;;;;;;;2.83;1.83;;;2.70;99.90;;;;;;5024676;28;20776;-74
2023/03/15 03:07:14;;;;;;;3.63;1.93;;;2.70;99.90;;;;;;5007267;28;20043;-74
2023/03/15 03:09:39;;;;;;;1.77;1.08;;;2.70;99.90;;;;;;5006949;28;20053;-74
2023/03/15 03:12:05;;;;;;;4.03;2.07;;;2.60;99.90;;;;;;5006455;28;20653;-74
2023/03/15 03:14:31;;;;;;;3.63;1.55;;;2.70;99.90;;;;;;5024618;28;20137;-74
2023/03/15 03:16:56;;;;;;;11.17;1.17;;;2.70;99.90;;;;;;5024120;28;20072;-74
2023/03/15 03:19:24;;;;;;;1.67;0.73;;;2.60;99.90;;;;;;5006616;28;20176;-74
2023/03/15 03:21:52;;;;;;;2.17;0.90;;;2.60;99.90;;;;;;5006698;28;20041;-74
2023/03/15 03:24:18;;;;;;;5.20;0.80;;;2.60;99.90;;;;;;5024414;28;20049;-74
2023/03/15 03:26:47;;;;;;;1.67;0.87;;;2.60;99.90;;;;;;5024393;28;20525;-74
2023/03/15 03:29:16;;;;;;;2.70;0.80;;;2.60;99.90;;;;;;5024035;28;20049;-73
2023/03/15 03:31:43;;;;;;;12.37;1.40;;;2.50;99.90;;;;;;5006237;28;20045;-74
2023/03/15 03:34:09;;;;;;;2.83;0.77;;;2.50;99.90;;;;;;5009727;28;20045;-74
2023/03/15 03:36:35;;;;;;;4.40;1.67;;;2.50;99.90;;;;;;5010723;28;20041;-74
2023/03/15 03:39:01;;;;;;;5.23;1.57;;;2.40;99.90;;;;;;5010288;28;20052;-74
2023/03/15 03:41:26;;;;;;;5.97;1.70;;;2.40;99.90;;;;;;5010813;28;20076;-74
2023/03/15 03:43:52;;;;;;;5.37;2.97;;;2.40;99.90;;;;;;5028197;28;20114;-74
2023/03/15 03:46:18;;;;;;;18.00;1.97;;;2.40;99.90;;;;;;5028122;28;20041;-74
2023/03/15 03:48:43;;;;;;;3.03;1.20;;;2.40;99.90;;;;;;5009600;28;20026;-74
2023/03/15 03:51:10;;;;;;;3.60;1.10;;;2.30;99.90;;;;;;5027900;28;20061;-74
2023/03/15 03:53:36;;;;;;;3.07;1.67;;;2.30;99.90;;;;;;5010152;28;20065;-74
2023/03/15 03:56:04;;;;;;;5.70;1.37;;;2.20;99.90;;;;;;5009652;28;20049;-74
2023/03/15 03:58:30;;;;;;;1.93;1.10;;;2.20;99.90;;;;;;5028025;28;20413;-74
2023/03/15 04:00:55;;;;;;;3.87;0.90;;;2.20;99.90;;;;;;5010754;28;20132;-74
2023/03/15 04:03:27;;;;;;;5.40;1.63;;;2.20;99.90;;;;;;5026725;28;20140;-74
2023/03/15 04:05:54;;;;;;;1.15;0.73;;;2.10;99.90;;;;;;5028163;28;20045;-74
2023/03/15 04:08:20;;;;;;;6.47;2.27;;;2.10;99.90;;;;;;4993027;28;20055;-74
2023/03/15 04:10:54;;;;;;;1.97;0.90;;;2.10;99.90;;;;;;5010374;28;20064;-74
2023/03/15 04:13:21;;;;;;;2.00;0.87;;;2.00;99.90;;;;;;5027418;28;20460;-73
2023/03/15 04:15:47;;;;;;;3.07;1.20;;;2.00;99.90;;;;;;5027564;28;20072;-74
2023/03/15 04:18:13;;;;;;;2.00;0.90;;;2.00;99.90;;;;;;5009099;28;20041;-74
2023/03/15 04:20:45;;;;;;;1.17;0.97;;;1.90;99.90;;;;;;5009687;28;20551;-74
2023/03/15 04:23:15;;;;;;;4.18;1.08;;;1.90;99.90;;;;;;5026909;28;20042;-74
2023/03/15 04:25:41;;;;;;;11.90;0.87;;;1.80;99.90;;;;;;5027819;28;20111;-74
2023/03/15 04:28:09;;;;;;;1.97;1.20;;;1.80;99.90;;;;;;5009635;28;20037;-74
2023/03/15 04:30:36;;;;;;;2.23;1.57;;;1.80;99.90;;;;;;5026975;28;20052;-74
2023/03/15 04:33:03;;;;;;;4.30;2.00;;;1.80;99.90;;;;;;5026372;28;20261;-74
2023/03/15 04:35:31;;;;;;;3.77;1.73;;;1.80;99.90;;;;;;5027290;28;20042;-74
2023/03/15 04:37:57;;;;;;;4.37;2.00;;;1.80;99.90;;;;;;5009809;28;20084;-74
2023/03/15 04:40:24;;;;;;;25.47;2.50;;;1.80;99.90;;;;;;5008845;28;20473;-74
2023/03/15 04:42:56;;;;;;;5.20;1.90;;;1.80;99.90;;;;;;5027339;28;20057;-73
2023/03/15 04:45:22;;;;;;;;;;;1.80;99.90;;;;;;5008695;28;20120;-73
2023/03/15 04:47:49;;;;;;;3.77;2.90;;;1.80;99.90;;;;;;5008374;28;19921;-74
2023/03/15 04:50:15;;;;;;;1.93;1.30;;;1.80;99.90;;;;;;5026831;28;20465;-74
2023/03/15 04:52:41;;;;;;;2.47;1.73;;;1.80;99.90;;;;;;5026826;28;20045;-74
2023/03/15 04:55:07;;;;;;;2.33;2.07;;;1.80;99.90;;;;;;5026791;28;20049;-74
2023/03/15 04:57:33;;;;;;;9.67;2.10;;;1.80;99.90;;;;;;5027002;28;20087;-74
2023/03/15 04:59:58;;;;;;;3.73;0.97;;;1.80;99.90;;;;;;5027130;28;20441;-73
2023/03/15 05:02:24;;;;;;;2.83;1.23;;;1.80;99.90;;;;;;5025774;28;20050;-74
2023/03/15 05:04:49;;;;;;;2.63;1.20;;;1.80;99.90;;;;;;5008740;28;20069;-74
2023/03/15 05:07:15;;;;;;;1.43;0.70;;;1.80;99.90;;;;;;5026822;28;20473;-74
2023/03/15 05:09:41;;;;;;;3.87;1.57;;;1.80;99.90;;;;;;5026649;28;20038;-74
2023/03/15 05:12:07;;;;;;;1.87;0.90;;;1.80;99.90;;;;;;5026658;28;20047;-74
2023/03/15 05:14:32;;;;;;;1.80;0.63;;;1.80;99.90;;;;;;5026076;28;20128;-74
2023/03/15 05:17:00;;;;;;;12.50;1.57;;;1.80;99.90;;;;;;5026196;28;20144;-74
2023/03/15 05:19:26;;;;;;;2.07;1.10;;;1.80;99.90;;;;;;5009007;28;20092;-74
2023/03/15 05:21:53;;;;;;;1.93;1.73;;;1.80;99.90;;;;;;5026164;28;20073;-74
2023/03/15 05:24:19;;;;;;;0.70;0.70;;;1.70;99.90;;;;;;5026228;28;20037;-73
2023/03/15 05:26:45;;;;;;;5.07;1.93;;;1.80;99.90;;;;;;5026578;28;20048;-73
2023/03/15 05:29:11;;;;;;;3.57;1.07;;;1.70;99.90;;;;;;5025823;28;20409;-74
2023/03/15 05:31:37;;;;;;;3.90;1.93;;;1.70;99.90;;;;;;5025163;28;20042;-74
2023/03/15 05:34:03;;;;;;;2.43;0.90;;;1.70;99.90;;;;;;5007973;28;20532;-74
2023/03/15 05:36:33;;;;;;;4.07;1.07;;;1.70;99.90;;;;;;5026627;28;20525;-74
2023/03/15 05:39:01;;;;;;;2.07;0.90;;;1.70;99.90;;;;;;5008528;28;20711;-74
2023/03/15 05:41:27;;;;;;;10.87;1.50;;;1.70;99.90;;;;;;5008705;28;20120;-74
2023/03/15 05:43:53;;;;;;;3.03;1.00;;;1.70;99.90;;;;;;5008455;28;20482;-74
2023/03/15 05:46:21;;;;;;;2.50;1.07;;;1.70;99.90;;;;;;5024526;28;20083;-74
2023/03/15 05:48:47;;;;;;;4.40;1.30;;;1.60;99.90;;;;;;5025469;28;20461;-74
2023/03/15 05:51:13;;;;;;;1.23;0.73;;;1.60;99.90;;;;;;5025821;28;20409;-74
2023/03/15 05:53:39;;;;;;;1.70;1.17;;;1.60;99.90;;;;;;5025801;28;20037;-74
2023/03/15 05:56:05;;;;;;;12.20;1.70;;;1.60;99.90;;;;;;5025446;28;20073;-74
2023/03/15 05:58:30;;;;;;;3.70;1.10;;;1.60;99.90;;;;;;5025744;28;20041;-74
2023/03/15 06:00:56;;;;;;;4.90;1.43;;;1.60;99.90;;;;;;4991553;28;20094;-74
2023/03/15 06:03:22;;;;;;;7.10;2.67;;;1.60;99.90;;;;;;5024483;28;20510;-74
2023/03/15 06:05:47;;;;;;;11.80;2.27;;;1.60;99.90;;;;;;5025715;28;20052;-74
2023/03/15 06:08:13;;;;;;;4.97;1.20;;;1.60;99.90;;;;;;5025546;28;20049;-73
2023/03/15 06:10:38;;;;;;;1.47;1.13;;;1.60;99.90;;;;;;5007563;28;20406;-74
2023/03/15 06:13:04;;;;;;;13.13;1.30;;;1.60;99.90;;;;;;5024504;28;20053;-74
2023/03/15 06:15:30;;;;;;;1.20;1.07;;;1.60;99.90;;;;;;5024968;28;20049;-74
2023/03/15 06:17:56;;;;;;;3.00;1.40;;;1.60;99.90;;;;;;5005937;28;20041;-74
2023/03/15 06:20:21;;;;;;;4.13;2.23;;;1.60;99.90;;;;;;5024587;28;20124;-74
2023/03/15 06:22:47;;;;;;;13.43;2.23;;;1.60;99.90;;;;;;5024984;28;20073;-75
2023/03/15 06:25:12;;;;;;;1.20;1.10;;;1.60;99.90;;;;;;5023495;28;20077;-72
2023/03/15 06:27:38;;;;;;;14.77;3.17;;;1.60;99.90;;;;;;5024064;28;20537;-72
2023/03/15 06:30:04;;;;;;;7.53;2.40;;;1.60;99.90;;;;;;5023306;28;20464;-73
2023/03/15 06:32:30;;;;;;;4.77;2.83;;;1.60;99.90;;;;;;5023320;28;20055;-73
2023/03/15 06:34:56;;;;;;;4.83;2.83;;;1.60;99.90;;;;;;5024757;28;20033;-72
2023/03/15 06:37:21;;;;;;;5.47;3.40;;;1.50;99.90;;;;;;5023449;28;20099;-73
2023/03/15 06:39:47;;;;;;;7.37;2.50;;;1.50;99.90;;;;;;5024801;28;20069;-73
2023/03/15 06:42:13;;;;;;;23.77;3.27;;;1.60;99.90;;;;;;5023159;28;20391;-73
2023/03/15 06:44:40;;;;;;;3.03;1.40;;;1.60;99.90;;;;;;5025114;28;20125;-74
2023/03/15 06:47:06;;;;;;;2.40;1.37;;;1.60;99.90;;;;;;5023323;28;20117;-74
2023/03/15 06:49:32;;;;;;;20.53;2.83;;;1.60;99.90;;;;;;5024301;28;20033;-74
2023/03/15 06:51:57;;;;;;;7.00;2.80;;;1.60;99.90;;;;;;5025429;28;20132;-73
2023/03/15 06:54:23;;;;;;;3.03;1.53;;;1.60;99.90;;;;;;5024718;28;20049;-74
2023/03/15 06:56:49;;;;;;;2.37;1.43;;;1.70;99.90;;;;;;5024900;28;20077;-74
2023/03/15 06:59:16;;;;;;;14.93;3.73;;;1.70;99.90;;;;;;5024548;28;20053;-74
2023/03/15 07:01:41;;;;;;;3.57;2.30;;;1.80;99.90;;;;;;5022980;28;20095;-74
2023/03/15 07:04:08;;;;;;;5.63;1.87;;;1.80;99.90;;;;;;5024550;28;20037;-74
2023/03/15 07:06:34;;;;;;;2.07;1.37;;;1.90;99.90;;;;;;5025167;28;20068;-74
2023/03/15 07:09:00;;;;;;;3.50;1.30;;;1.90;99.90;;;;;;5006767;28;20503;-75
2023/03/15 07:11:26;;;;;;;1.13;0.77;;;2.00;99.90;;;;;;5020789;28;20120;-74
2023/03/15 07:13:51;;;;;;;0.90;0.47;;;2.00;99.90;;;;;;5024205;28;20148;-74
2023/03/15 07:16:17;;;;;;;0.80;0.50;;;2.00;99.90;;;;;;5022485;28;20465;-74
2023/03/15 07:18:42;;;;;;;1.00;0.60;;;2.10;99.90;;;;;;5024122;28;20033;-74
2023/03/15 07:21:08;;;;;;;3.57;0.70;;;2.10;99.90;;;;;;5022834;28;20041;-74
2023/03/15 07:23:34;;;;;;;0.33;0.33;;;2.20;99.90;;;;;;5005843;28;20045;-74
2023/03/15 07:25:59;;;;;;;1.57;0.80;;;2.20;99.90;;;;;;5005341;28;20076;-74
2023/03/15 07:28:26;;;;;;;0.80;0.60;;;2.10;99.90;;;;;;5023221;28;20038;-74
2023/03/15 07:30:57;;;;;;;1.63;0.60;;;2.20;99.90;;;;;;5022771;28;20880;-74
2023/03/15 07:33:23;;;;;;;0.87;0.67;;;2.30;99.90;;;;;;5005756;28;20064;-75
2023/03/15 07:35:50;;;;;;;3.03;0.60;;;2.30;99.90;;;;;;5018884;28;20140;-75
2023/03/15 07:38:16;;;;;;;0.83;0.70;;;2.30;99.90;;;;;;5019601;28;20049;-76
2023/03/15 07:40:42;;;;;;;4.80;1.93;;;2.40;99.90;;;;;;5007740;28;20184;-76
2023/03/15 07:43:08;;;;;;;2.10;1.00;;;2.40;99.90;;;;;;5009763;28;20429;-76
2023/03/15 07:45:33;;;;;;;3.83;2.33;;;2.50;99.90;;;;;;5005186;28;20041;-77
2023/03/15 07:47:59;;;;;;;1.43;0.90;;;2.50;99.90;;;;;;5022783;28;20387;-75
2023/03/15 07:50:25;;;;;;;1.37;1.00;;;2.50;99.90;;;;;;5024067;28;20037;-74
2023/03/15 07:52:51;;;;;;;0.97;0.50;;;2.50;99.90;;;;;;5023632;28;20499;-76
2023/03/15 07:55:17;;;;;;;2.73;1.90;;;2.60;99.90;;;;;;5022716;28;20116;-75
2023/03/15 07:57:43;;;;;;;2.07;0.93;;;2.60;99.90;;;;;;5023311;28;20191;-74
2023/03/15 08:00:11;;;;;;;1.07;0.90;;;2.60;99.90;;;;;;5022977;28;20061;-73
2023/03/15 08:02:36;;;;;;;1.03;0.63;;;2.60;99.90;;;;;;5022401;28;20452;-75
2023/03/15 08:05:03;;;;;;;1.90;1.20;;;2.70;99.90;;;;;;5022902;28;20037;-74
2023/03/15 08:07:29;;;;;;;1.07;0.77;;;2.80;99.90;;;;;;5023494;28;20041;-75
2023/03/15 08:09:56;;;;;;;1.13;0.80;;;2.70;99.90;;;;;;5023541;28;20088;-74
2023/03/15 08:12:23;;;;;;;0.70;0.63;;;2.80;99.90;;;;;;5022610;28;20041;-73
2023/03/15 08:14:50;;;;;;;1.27;1.00;;;2.80;99.90;;;;;;5022669;28;20421;-73
2023/03/15 08:17:16;;;;;;;3.00;1.53;;;2.90;99.90;;;;;;5004423;28;20350;-74
2023/03/15 08:19:41;;;;;;;1.50;1.10;;;2.90;99.90;;;;;;5023710;28;20118;-74
2023/03/15 08:22:07;;;;;;;2.53;0.60;;;3.00;99.90;;;;;;5026476;28;20539;-74
2023/03/15 08:24:33;;;;;;;5.20;2.47;;;3.00;99.90;;;;;;5027002;28;20042;-73
2023/03/15 08:26:58;;;;;;;5.90;0.90;;;3.00;99.90;;;;;;5008852;28;20544;-74
2023/03/15 08:29:24;;;;;;;5.53;0.70;;;3.00;99.90;;;;;;5026545;28;20048;-75
2023/03/15 08:31:50;;;;;;;1.23;1.07;;;3.10;99.90;;;;;;5025069;28;20068;-75
2023/03/15 08:34:15;;;;;;;1.03;0.57;;;3.10;99.90;;;;;;5008296;28;20133;-74
2023/03/15 08:36:41;;;;;;;0.97;0.73;;;3.20;99.90;;;;;;5008267;28;20049;-74
2023/03/15 08:39:07;;;;;;;1.77;0.70;;;3.20;99.90;;;;;;5008416;28;20045;-75
2023/03/15 08:41:33;;;;;;;2.40;1.37;;;3.30;99.90;;;;;;5008056;28;20051;-73
2023/03/15 08:43:59;;;;;;;2.40;0.77;;;3.30;99.90;;;;;;5009532;28;20351;-75
2023/03/15 08:46:26;;;;;;;2.60;1.60;;;3.40;99.90;;;;;;5007378;28;20049;-74
2023/03/15 08:48:52;;;;;;;1.20;0.87;;;3.50;99.90;;;;;;5026265;28;20038;-75
2023/03/15 08:51:18;;;;;;;1.77;1.10;;;3.50;99.90;;;;;;5007714;28;20498;-74
2023/03/15 08:54:07;;;;;;;3.05;2.20;;;3.50;99.90;;;;;;5008192;28;20551;-75
2023/03/15 08:56:33;;;;;;;4.80;1.40;;;3.60;99.90;;;;;;5026513;28;20073;-75
2023/03/15 08:58:59;;;;;;;1.20;1.07;;;3.70;99.90;;;;;;5026294;28;20438;-74
2023/03/15 09:01:25;;;;;;;4.37;1.50;;;3.70;99.90;;;;;;5007300;28;20041;-75
2023/03/15 09:03:50;;;;;;;1.03;0.57;;;3.70;99.90;;;;;;5025637;28;20113;-73
2023/03/15 09:06:16;;;;;;;9.50;1.52;;;3.80;99.90;;;;;;5025273;28;20107;-74
2023/03/15 09:08:41;;;;;;;0.97;0.80;;;3.90;99.90;;;;;;4991697;28;20041;-75
2023/03/15 09:11:07;;;;;;;1.50;0.90;;;3.90;99.90;;;;;;5025050;28;20481;-73
2023/03/15 09:13:33;;;;;;;2.07;1.17;;;3.90;99.90;;;;;;5007724;28;20061;-75
2023/03/15 09:15:58;;;;;;;1.23;0.70;;;4.00;99.90;;;;;;5007444;28;20076;-75
2023/03/15 09:18:24;;;;;;;11.40;2.33;;;4.00;99.90;;;;;;5025829;28;20046;-75
2023/03/15 09:20:50;;;;;;;0.98;0.88;;;4.00;99.90;;;;;;4991305;28;20096;-74
2023/03/15 09:23:15;;;;;;;11.25;2.58;;;4.10;99.90;;;;;;5024871;28;20084;-76
2023/03/15 09:25:41;;;;;;;3.58;1.55;;;4.10;99.90;;;;;;5025859;28;20442;-73
2023/03/15 09:28:08;;;;;;;1.75;1.60;;;4.10;99.90;;;;;;5025132;28;20111;-75
2023/03/15 09:30:36;;;;;;;1.33;1.10;;;4.20;99.90;;;;;;5006252;28;20057;-75
2023/03/15 09:33:03;;;;;;;3.45;2.72;;;4.20;99.90;;;;;;5024985;28;20568;-75
2023/03/15 09:35:28;;;;;;;3.80;1.90;;;4.30;99.90;;;;;;5025323;28;20112;-75
2023/03/15 09:37:54;;;;;;;12.85;1.63;;;4.30;99.90;;;;;;5025505;28;20133;-75
2023/03/15 09:40:23;;;;;;;2.17;1.58;;;4.30;99.90;;;;;;5007148;28;20049;-75
2023/03/15 09:43:12;;;;;;;3.03;1.08;;;4.40;99.90;;;;;;5024968;28;20387;-75
2023/03/15 09:45:47;;;;;;;12.73;3.42;;;4.50;99.90;;;;;;5006558;28;20061;-75
2023/03/15 09:48:15;;;;;;;4.13;1.23;;;4.50;99.90;;;;;;5024295;28;20592;-75
2023/03/15 09:50:49;;;;;;;2.35;1.40;;;4.50;99.90;;;;;;5006929;28;20049;-74
2023/03/15 09:53:27;;;;;;;5.47;2.78;;;4.60;99.90;;;;;;5006647;28;20361;-75
2023/03/15 09:55:53;;;;;;;6.05;1.95;;;4.70;99.90;;;;;;5025070;28;20509;-75
2023/03/15 09:58:25;;;;;;;6.43;2.92;;;4.80;99.90;;;;;;5021959;28;20144;-75
2023/03/15 10:01:07;;;;;;;4.13;0.93;;;4.90;99.90;;;;;;5004121;28;20041;-76
2023/03/15 10:03:40;;;;;;;5.20;2.97;;;5.00;99.90;;;;;;4994442;28;20050;-77
2023/03/15 10:06:17;;;;;;;9.43;1.73;;;5.10;99.90;;;;;;5015076;28;20609;-74
2023/03/15 10:08:45;;;;;;;1.67;1.48;;;5.20;99.90;;;;;;5005542;28;20128;-73
2023/03/15 10:11:25;;;;;;;2.47;1.45;;;5.20;99.90;;;;;;5016834;28;20318;-76
2023/03/15 10:14:24;;;;;;;2.30;1.40;;;5.20;99.90;;;;;;5019832;28;20112;-75
2023/03/15 10:16:51;;;;;;;3.55;1.67;;;5.20;99.90;;;;;;5004491;28;20549;-76
2023/03/15 10:19:32;;;;;;;6.80;2.08;;;5.20;99.90;;;;;;5002969;28;20132;-76
2023/03/15 10:22:24;;;;;;;7.75;2.20;;;5.20;99.90;;;;;;5004269;28;20173;-76
2023/03/15 10:25:03;;;;;;;2.95;1.20;;;5.20;99.90;;;;;;5001758;28;20977;-76
2023/03/15 10:27:44;;;;;;;7.47;2.42;;;5.30;99.90;;;;;;5024878;28;20045;-73
2023/03/15 10:30:22;;;;;;;2.33;1.27;;;5.30;99.90;;;;;;4979708;28;20049;-75
2023/03/15 10:32:57;;;;;;;5.30;1.30;;;5.30;99.90;;;;;;5024228;28;20373;-76
2023/03/15 10:35:22;;;;;;;8.35;1.65;;;5.40;99.90;;;;;;5024550;28;20234;-77
2023/03/15 10:37:48;;;;;;;2.58;1.17;;;5.40;99.90;;;;;;5023560;28;20041;-76
2023/03/15 10:40:15;;;;;;;3.65;1.55;;;5.40;99.90;;;;;;5006070;28;20040;-77
2023/03/15 10:42:45;;;;;;;1.80;1.02;;;5.50;99.90;;;;;;5009701;28;20086;-76
2023/03/15 10:45:24;;;;;;;4.30;1.83;;;5.50;99.90;;;;;;5006332;28;20042;-76
2023/03/15 10:47:51;;;;;;;3.95;1.20;;;5.50;99.90;;;;;;5024096;28;20116;-76
2023/03/15 10:50:24;;;;;;;10.10;1.90;;;5.50;99.90;;;;;;5023756;28;20038;-77
2023/03/15 10:52:53;;;;;;;4.22;1.75;;;5.50;99.90;;;;;;4990106;28;20056;-77
2023/03/15 10:55:32;;;;;;;4.82;1.63;;;5.50;99.90;;;;;;5006542;28;20560;-76
2023/03/15 10:58:11;;;;;;;1.35;1.00;;;5.50;99.90;;;;;;5007140;28;20045;-77
2023/03/15 11:00:36;;;;;;;1.52;0.82;;;5.60;99.90;;;;;;5022881;28;20120;-75
2023/03/15 11:03:14;;;;;;;3.65;1.55;;;5.60;99.90;;;;;;5005601;28;20302;-77
2023/03/15 11:05:46;;;;;;;4.07;2.08;;;5.60;99.90;;;;;;5006744;28;20051;-76
2023/03/15 11:08:15;;;;;;;3.42;1.77;;;5.60;99.90;;;;;;5023651;28;20124;-76
2023/03/15 11:10:43;;;;;;;3.47;1.42;;;5.60;99.90;;;;;;5006080;28;20148;-75
2023/03/15 11:13:16;;;;;;;3.65;1.98;;;5.60;99.90;;;;;;5006018;28;20491;-76
2023/03/15 11:15:51;;;;;;;1.60;1.42;;;5.60;99.90;;;;;;5022395;28;20056;-76
2023/03/15 11:18:19;;;;;;;2.47;1.05;;;5.60;99.90;;;;;;5023758;28;20045;-75
2023/03/15 11:20:45;;;;;;;3.10;2.00;;;5.60;99.90;;;;;;5005982;28;20569;-76
2023/03/15 11:23:18;;;;;;;3.45;1.75;;;5.60;99.90;;;;;;5005820;28;20124;-75
2023/03/15 11:25:44;;;;;;;3.15;1.23;;;5.60;99.90;;;;;;5023511;28;20041;-75
2023/03/15 11:28:23;;;;;;;2.00;1.02;;;5.70;99.90;;;;;;5023387;28;20052;-76
2023/03/15 11:30:49;;;;;;;5.88;3.22;;;5.70;99.90;;;;;;5004948;28;20057;-74
2023/03/15 11:33:36;;;;;;;1.10;1.00;;;5.70;99.90;;;;;;5005336;28;20046;-76
2023/03/15 11:36:05;;;;;;;3.58;1.17;;;5.70;99.90;;;;;;5023124;28;20033;-76
2023/03/15 11:38:38;;;;;;;11.93;2.38;;;5.80;99.90;;;;;;5005803;28;20049;-75
2023/03/15 11:41:28;;;;;;;5.57;1.77;;;5.80;99.90;;;;;;5005561;28;20046;-73
2023/03/15 11:44:24;;;;;;;1.98;1.10;;;5.90;99.90;;;;;;5005558;28;20099;-75
2023/03/15 11:46:56;;;;;;;1.73;1.45;;;5.90;99.90;;;;;;5023178;28;20054;-76
2023/03/15 11:49:36;;;;;;;2.63;1.25;;;5.80;99.90;;;;;;5005539;28;20493;-76
2023/03/15 11:52:02;;;;;;;1.52;1.30;;;5.90;99.90;;;;;;5023202;28;20045;-76
2023/03/15 11:54:31;;;;;;;2.78;1.83;;;5.90;99.90;;;;;;5008507;28;20103;-76
2023/03/15 11:57:05;;;;;;;2.00;1.17;;;5.90;99.90;;;;;;5027546;28;20073;-76
2023/03/15 11:59:36;;;;;;;6.32;1.00;;;5.80;99.90;;;;;;5026726;28;20065;-76
2023/03/15 12:02:14;;;;;;;3.00;1.48;;;5.90;99.90;;;;;;5025730;28;20052;-76
2023/03/15 12:04:43;;;;;;;7.35;1.70;;;5.90;99.90;;;;;;5009112;28;20049;-76
2023/03/15 12:07:23;;;;;;;3.55;1.25;;;5.90;99.90;;;;;;5026568;28;20033;-76
2023/03/15 12:09:55;;;;;;;8.80;1.95;;;5.90;99.90;;;;;;5008848;28;20081;-75
2023/03/15 12:12:23;;;;;;;3.22;2.05;;;5.90;99.90;;;;;;5026788;28;20053;-76
2023/03/15 12:15:34;;;;;;;4.10;1.65;;;5.90;99.90;;;;;;5025721;28;20054;-75
2023/03/15 12:18:05;;;;;;;2.65;1.15;;;6.00;99.90;;;;;;5026558;28;20053;-74
2023/03/15 12:20:33;;;;;;;6.47;1.88;;;6.00;99.90;;;;;;5009673;28;20044;-74
2023/03/15 12:23:17;;;;;;;3.50;1.30;;;6.00;99.90;;;;;;5027087;28;20047;-76
2023/03/15 12:26:01;;;;;;;3.20;1.08;;;6.00;99.90;;;;;;5019606;28;20038;-76
2023/03/15 12:28:40;;;;;;;2.17;0.82;;;6.00;99.90;;;;;;5021036;28;20050;-75
2023/03/15 12:31:12;;;;;;;1.20;1.05;;;6.00;99.90;;;;;;5024502;28;20037;-76
2023/03/15 12:33:45;;;;;;;2.55;1.13;;;6.00;99.90;;;;;;5015969;28;20037;-75
2023/03/15 12:36:35;;;;;;;5.30;1.98;;;6.10;99.90;;;;;;5026335;28;20119;-76
2023/03/15 12:39:20;;;;;;;1.70;0.90;;;6.10;99.90;;;;;;5022005;28;20042;-76
2023/03/15 12:41:48;;;;;;;14.50;2.25;;;6.10;99.90;;;;;;4994154;28;20119;-75
2023/03/15 12:44:46;;;;;;;1.73;1.20;;;6.10;99.90;;;;;;5008948;28;20045;-75
2023/03/15 12:47:12;;;;;;;5.05;1.60;;;6.10;99.90;;;;;;4965951;28;20050;-75
2023/03/15 12:49:43;;;;;;;1.38;1.00;;;6.10;99.90;;;;;;5009192;28;20425;-76
2023/03/15 12:52:14;;;;;;;1.27;1.17;;;6.10;99.90;;;;;;5008363;28;20042;-76
2023/03/15 12:54:45;;;;;;;5.83;1.50;;;6.10;99.90;;;;;;5008283;28;20204;-75
2023/03/15 12:57:13;;;;;;;2.90;1.30;;;6.20;99.90;;;;;;5019262;28;20919;-74
2023/03/15 12:59:53;;;;;;;5.63;1.67;;;6.20;99.90;;;;;;5008101;28;20092;-75
2023/03/15 13:02:54;;;;;;;1.55;0.90;;;6.20;99.90;;;;;;4991011;28;20566;-76
2023/03/15 13:05:26;;;;;;;3.13;2.20;;;6.20;99.90;;;;;;4987635;28;20053;-75
2023/03/15 13:07:57;;;;;;;;;;;6.20;99.90;;;;;;4997152;28;20144;-74